ポートビラ の空港の天気 - METARとTAF

ポートビラ・バウアフィールド空港 ( NVVV / VLI ) - バヌアツ ポートビラ
飛行場実況気象(Metar)
観測時間10/02 03:00 VUT (10/01 16:00 UTC)
風向・風速東南東 3m/s
視程10km以上
天気現象
全天の8割程度の雲 雲底高度 550m
全天を覆う雲 雲底高度 1220m
気温23℃
湿度89%
気圧1014hPa
METARNVVV 011600Z 11006KT 9999 BKN018 OVC040 23/21 Q1014
過去の天気等 Google飛行場航空写真 Wunderground天気予報

過去48時間のMETAR

飛行場予報(TAF)
発表時間: 10/01 21:00 VUT (10/01 10:00 UTC)
予報対象時間: 1日23時 VUT ~ 2日23時 VUT
風向・風速東南東 8m/s
視程10km以上
全天の8割程度の雲 雲底高度 610m
全天を覆う雲 雲底高度 1220m
TAF NVVV 011000Z 0112/0212 12015KT 9999 BKN020 OVC040 INTER 0112/0118 9000 -SHRA BKN018